createdAt,value
2023-12-23T00:03:02.219Z,12.68
2023-12-23T00:08:08.348Z,15.18
2023-12-23T00:13:12.863Z,21.73
2023-12-23T00:18:17.594Z,9.77
2023-12-23T00:23:23.817Z,8.43
2023-12-23T00:28:28.276Z,12.48
2023-12-23T00:33:32.671Z,55.20
2023-12-23T00:38:38.570Z,46.13
2023-12-23T00:43:43.055Z,61.35
2023-12-23T00:48:48.205Z,9.00
2023-12-23T00:53:54.045Z,8.23
2023-12-23T00:58:58.478Z,8.70
2023-12-23T01:04:03.106Z,12.13
2023-12-23T01:09:09.092Z,22.33
2023-12-23T01:14:13.729Z,8.18
2023-12-23T01:19:18.208Z,7.70
2023-12-23T01:24:24.144Z,4.75
2023-12-23T01:29:29.259Z,6.38
2023-12-23T01:34:33.637Z,6.05
2023-12-23T01:39:39.599Z,7.90
2023-12-23T01:44:43.947Z,7.60
2023-12-23T01:49:50.169Z,4.82
2023-12-23T01:54:56.052Z,5.00
2023-12-23T02:00:00.851Z,2.88
2023-12-23T02:05:05.850Z,6.03
2023-12-23T02:10:12.114Z,5.20
2023-12-23T02:15:18.231Z,13.82
2023-12-23T02:20:22.804Z,3.95
2023-12-23T02:25:28.770Z,5.30
2023-12-23T02:30:35.480Z,3.92
2023-12-23T02:35:40.011Z,2.58
2023-12-23T02:40:45.904Z,4.85
2023-12-23T02:45:50.296Z,6.93
2023-12-23T02:50:54.744Z,4.43
2023-12-23T02:56:01.163Z,9.65
2023-12-23T03:01:08.697Z,5.35
2023-12-23T03:06:16.033Z,4.72
2023-12-23T03:11:22.045Z,5.30
2023-12-23T03:16:29.254Z,4.18
2023-12-23T03:21:33.806Z,8.20
2023-12-23T03:26:39.947Z,10.02
2023-12-23T03:31:44.327Z,3.72
2023-12-23T03:36:48.758Z,6.90
2023-12-23T03:41:54.573Z,3.17
2023-12-23T03:46:59.058Z,3.38
2023-12-23T03:52:03.638Z,3.78
2023-12-23T03:57:09.903Z,5.13
2023-12-23T04:02:15.066Z,5.30
2023-12-23T04:07:19.591Z,15.70
2023-12-23T04:12:25.403Z,6.25
2023-12-23T04:17:29.887Z,7.25
2023-12-23T04:22:34.289Z,5.30
2023-12-23T04:27:40.175Z,3.22
2023-12-23T04:32:45.454Z,4.97
2023-12-23T04:37:50.514Z,6.43
2023-12-23T04:42:56.699Z,2.42
2023-12-23T04:48:01.635Z,2.30
2023-12-23T04:53:06.489Z,4.05
2023-12-23T04:58:12.290Z,2.88
2023-12-23T05:03:16.773Z,7.85
2023-12-23T05:08:21.960Z,3.60
2023-12-23T05:13:27.796Z,9.05
2023-12-23T05:18:32.348Z,4.05
2023-12-23T05:23:36.825Z,3.78
2023-12-23T05:28:42.751Z,6.07
2023-12-23T05:33:48.590Z,4.68
2023-12-23T05:38:53.067Z,2.40
2023-12-23T05:43:58.953Z,2.40
2023-12-23T05:49:03.376Z,7.55
2023-12-23T05:54:07.869Z,5.25
2023-12-23T05:59:14.055Z,3.13
2023-12-23T06:04:18.876Z,4.38
2023-12-23T06:09:23.334Z,4.13
2023-12-23T06:14:29.098Z,3.22
2023-12-23T06:19:33.526Z,1.65
2023-12-23T06:24:38.135Z,5.05
2023-12-23T06:29:43.972Z,3.45
2023-12-23T06:34:48.376Z,3.10
2023-12-23T06:39:52.824Z,6.50
2023-12-23T06:44:58.661Z,6.05
2023-12-23T06:50:03.381Z,6.18
2023-12-23T06:55:08.412Z,12.65
2023-12-23T07:00:16.150Z,9.25
2023-12-23T07:05:20.764Z,7.03
2023-12-23T07:10:25.223Z,5.72
2023-12-23T07:15:34.477Z,8.98
2023-12-23T07:20:41.165Z,11.00
2023-12-23T07:25:45.777Z,16.15
2023-12-23T07:30:52.240Z,38.67
2023-12-23T07:35:56.812Z,17.45
2023-12-23T07:41:01.415Z,11.55
2023-12-23T07:46:07.643Z,50.35
2023-12-23T07:51:12.330Z,6.15
2023-12-23T07:56:16.943Z,7.72
2023-12-23T08:01:23.066Z,17.45
2023-12-23T08:06:27.620Z,20.85
2023-12-23T08:11:32.143Z,11.68
2023-12-23T08:16:38.045Z,4.60
2023-12-23T08:21:42.530Z,5.57
2023-12-23T08:26:47.060Z,11.90
2023-12-23T08:31:53.863Z,6.10
2023-12-23T08:36:58.587Z,10.00
2023-12-23T08:42:03.753Z,15.95
2023-12-23T08:47:09.747Z,23.13
2023-12-23T08:52:14.158Z,23.45
2023-12-23T08:57:18.627Z,9.07
2023-12-23T09:02:27.862Z,11.65
2023-12-23T09:07:35.205Z,7.93
2023-12-23T09:12:40.866Z,10.10
2023-12-23T09:17:47.321Z,14.82
2023-12-23T09:22:52.176Z,9.55
2023-12-23T09:27:56.651Z,25.15
2023-12-23T09:33:02.613Z,13.50
2023-12-23T09:38:07.178Z,26.45
2023-12-23T09:43:12.076Z,14.20
2023-12-23T09:48:18.090Z,18.23
2023-12-23T09:53:24.344Z,17.13
2023-12-23T09:58:29.224Z,9.15
2023-12-23T10:03:35.275Z,7.65
2023-12-23T10:08:41.460Z,22.42
2023-12-23T10:13:45.983Z,17.70
2023-12-23T10:18:51.921Z,15.15
2023-12-23T10:23:56.564Z,22.27
2023-12-23T10:29:06.275Z,26.08
2023-12-23T10:34:14.727Z,26.08
2023-12-23T10:39:25.395Z,27.80
2023-12-23T10:44:31.881Z,22.60
2023-12-23T10:49:38.310Z,21.15
2023-12-23T10:54:43.831Z,32.08
2023-12-23T10:59:48.481Z,71.88
2023-12-23T11:04:56.464Z,30.20
2023-12-23T11:10:03.177Z,27.67
2023-12-23T11:15:08.872Z,36.40
2023-12-23T11:20:46.936Z,26.45
2023-12-23T11:25:52.924Z,27.17
2023-12-23T11:30:59.397Z,26.88
2023-12-23T11:36:04.798Z,30.75
2023-12-23T11:41:10.893Z,19.55
2023-12-23T11:46:15.500Z,23.88
2023-12-23T11:51:20.127Z,21.85
2023-12-23T11:56:26.035Z,22.10
2023-12-23T12:01:31.109Z,16.90
2023-12-23T12:06:36.036Z,19.23
2023-12-23T12:11:42.170Z,21.70
2023-12-23T12:16:46.738Z,14.88
2023-12-23T12:21:51.250Z,11.70
2023-12-23T12:26:59.316Z,17.02
2023-12-23T12:32:04.508Z,22.92
2023-12-23T12:37:10.465Z,10.55
2023-12-23T12:42:17.127Z,15.90
2023-12-23T12:47:22.412Z,25.13
2023-12-23T12:52:27.998Z,32.42
2023-12-23T12:57:34.418Z,13.50
2023-12-23T13:02:39.383Z,16.92
2023-12-23T13:07:43.844Z,23.10
2023-12-23T13:12:50.409Z,27.25
2023-12-23T13:17:56.086Z,32.28
2023-12-23T13:23:00.618Z,33.67
2023-12-23T13:28:07.082Z,31.50
2023-12-23T13:33:11.704Z,42.42
2023-12-23T13:38:16.132Z,50.10
2023-12-23T13:43:21.959Z,43.35
2023-12-23T13:48:29.430Z,45.40
2023-12-23T13:53:34.082Z,39.20
2023-12-23T13:58:40.175Z,41.05
2023-12-23T14:03:45.483Z,130.68
2023-12-23T14:08:50.086Z,48.15
2023-12-23T14:13:56.194Z,50.30
2023-12-23T14:19:00.765Z,48.22
2023-12-23T14:24:06.279Z,66.88
2023-12-23T14:29:12.226Z,48.08
2023-12-23T14:34:16.772Z,75.53
2023-12-23T14:39:24.553Z,68.57
2023-12-23T14:44:31.055Z,70.70
2023-12-23T14:49:36.004Z,30.98
2023-12-23T14:54:40.391Z,55.67
2023-12-23T14:59:46.304Z,57.35
2023-12-23T15:04:50.779Z,45.70
2023-12-23T15:09:55.333Z,60.83
2023-12-23T15:15:01.203Z,76.35
2023-12-23T15:20:07.357Z,51.90
2023-12-23T15:25:12.160Z,46.13
2023-12-23T15:30:19.361Z,42.75
2023-12-23T15:35:23.904Z,67.68
2023-12-23T15:40:28.353Z,57.10
2023-12-23T15:45:34.117Z,47.05
2023-12-23T15:50:38.741Z,38.58
2023-12-23T15:55:43.294Z,50.83
2023-12-23T16:00:49.222Z,56.47
2023-12-23T16:05:53.851Z,70.65
2023-12-23T16:10:58.437Z,54.70
2023-12-23T16:16:04.726Z,64.85
2023-12-23T16:21:09.257Z,156.60
2023-12-23T16:26:18.564Z,302.98
2023-12-23T16:31:24.946Z,50.78
2023-12-23T16:36:29.436Z,55.92
2023-12-23T16:41:33.944Z,40.47
2023-12-23T16:46:39.836Z,69.90
2023-12-23T16:51:44.334Z,82.57
2023-12-23T16:56:48.789Z,81.03
2023-12-23T17:01:54.708Z,67.35
2023-12-23T17:06:59.247Z,80.05
2023-12-23T17:12:04.783Z,36.80
2023-12-23T17:17:10.961Z,37.80
2023-12-23T17:22:15.462Z,29.38
2023-12-23T17:27:20.077Z,29.52
2023-12-23T17:32:27.936Z,31.52
2023-12-23T17:37:32.419Z,38.53
2023-12-23T17:42:37.014Z,56.38
2023-12-23T17:47:43.162Z,32.55
2023-12-23T17:52:47.744Z,35.28
2023-12-23T17:57:52.214Z,41.97
2023-12-23T18:02:58.443Z,55.67
2023-12-23T18:08:03.386Z,54.95
2023-12-23T18:13:09.410Z,49.97
2023-12-23T18:18:15.372Z,41.53
2023-12-23T18:23:20.006Z,50.03
2023-12-23T18:28:24.419Z,41.28
2023-12-23T18:33:30.493Z,50.95
2023-12-23T18:38:35.103Z,47.72
2023-12-23T18:43:39.629Z,49.78
2023-12-23T18:48:45.460Z,78.65
2023-12-23T18:53:49.990Z,35.85
2023-12-23T18:58:54.344Z,43.13
2023-12-23T19:04:02.269Z,37.65
2023-12-23T19:09:06.887Z,36.20
2023-12-23T19:14:11.348Z,26.67
2023-12-23T19:19:17.317Z,34.20
2023-12-23T19:24:21.836Z,28.95
2023-12-23T19:29:26.303Z,32.95
2023-12-23T19:34:32.082Z,33.92
2023-12-23T19:39:36.431Z,33.28
2023-12-23T19:44:40.738Z,28.77
2023-12-23T19:49:46.506Z,32.55
2023-12-23T19:54:50.758Z,28.75
2023-12-23T19:59:55.109Z,39.03
2023-12-23T20:05:00.976Z,44.17
2023-12-23T20:10:06.242Z,31.40
2023-12-23T20:15:11.841Z,34.70
2023-12-23T20:20:17.690Z,27.15
2023-12-23T20:25:22.123Z,30.13
2023-12-23T20:30:26.551Z,29.70
2023-12-23T20:35:32.514Z,27.90
2023-12-23T20:40:36.847Z,26.17
2023-12-23T20:45:41.220Z,32.75
2023-12-23T20:50:48.665Z,36.35
2023-12-23T20:55:53.113Z,29.13
2023-12-23T21:00:57.589Z,28.08
2023-12-23T21:06:03.482Z,28.50
2023-12-23T21:11:07.925Z,31.50
2023-12-23T21:16:12.338Z,35.70
2023-12-23T21:21:18.066Z,34.13
2023-12-23T21:26:24.461Z,32.95
2023-12-23T21:31:28.938Z,35.83
2023-12-23T21:36:35.015Z,36.08
2023-12-23T21:41:39.708Z,39.75
2023-12-23T21:46:44.137Z,42.20
2023-12-23T21:51:50.036Z,48.45
2023-12-23T21:56:54.473Z,45.53
2023-12-23T22:01:58.899Z,31.30
2023-12-23T22:07:04.730Z,41.38
2023-12-23T22:12:09.849Z,44.65
2023-12-23T22:17:14.351Z,38.95
2023-12-23T22:22:20.211Z,42.85
2023-12-23T22:27:24.576Z,45.90
2023-12-23T22:32:28.944Z,48.63
2023-12-23T22:37:34.885Z,51.60
2023-12-23T22:42:40.039Z,45.38
2023-12-23T22:47:44.916Z,41.15
2023-12-23T22:52:50.844Z,46.95
2023-12-23T22:57:55.349Z,46.33
2023-12-23T23:03:01.011Z,35.85
2023-12-23T23:08:08.205Z,34.60
2023-12-23T23:13:12.587Z,34.85
2023-12-23T23:18:17.314Z,33.63
2023-12-23T23:23:23.388Z,34.65
2023-12-23T23:28:27.761Z,30.70
2023-12-23T23:33:32.164Z,26.17
2023-12-23T23:38:38.116Z,29.52
2023-12-23T23:43:42.648Z,24.30
2023-12-23T23:48:47.475Z,19.77
2023-12-23T23:53:53.891Z,22.05
2023-12-23T23:58:58.997Z,25.80
